createdAt,value
2018-11-10T00:02:04.064Z,65.63
2018-11-10T00:04:32.417Z,66.23
2018-11-10T00:07:00.500Z,68.50
2018-11-10T00:09:28.667Z,82.67
2018-11-10T00:11:56.824Z,75.57
2018-11-10T00:14:25.095Z,73.23
2018-11-10T00:16:53.336Z,75.87
2018-11-10T00:19:21.582Z,67.60
2018-11-10T00:21:49.877Z,63.83
2018-11-10T00:24:18.154Z,78.80
2018-11-10T00:26:46.338Z,64.50
2018-11-10T00:29:14.603Z,69.17
2018-11-10T00:31:43.193Z,65.17
2018-11-10T00:34:12.460Z,71.50
2018-11-10T00:36:40.963Z,69.10
2018-11-10T00:39:09.912Z,74.00
2018-11-10T00:41:38.392Z,65.40
2018-11-10T00:44:06.970Z,61.80
2018-11-10T00:46:35.678Z,46.53
2018-11-10T00:49:03.835Z,60.43
2018-11-10T00:51:32.117Z,54.43
2018-11-10T00:54:00.421Z,58.87
2018-11-10T00:56:28.777Z,72.43
2018-11-10T00:58:57.080Z,69.43
2018-11-10T01:01:25.131Z,69.17
2018-11-10T01:03:53.346Z,57.70
2018-11-10T01:06:21.761Z,60.33
2018-11-10T01:08:50.127Z,59.70
2018-11-10T01:11:18.635Z,56.67
2018-11-10T01:13:47.830Z,53.77
2018-11-10T01:16:17.251Z,44.97
2018-11-10T01:18:45.635Z,59.10
2018-11-10T01:21:14.029Z,55.70
2018-11-10T01:23:43.005Z,53.20
2018-11-10T01:26:11.385Z,54.97
2018-11-10T01:28:40.521Z,53.50
2018-11-10T01:31:08.807Z,55.97
2018-11-10T01:33:37.115Z,61.27
2018-11-10T01:36:06.162Z,58.53
2018-11-10T01:38:34.420Z,64.67
2018-11-10T01:41:02.688Z,62.33
2018-11-10T01:43:30.910Z,54.33
2018-11-10T01:45:59.659Z,48.63
2018-11-10T01:48:29.641Z,63.77
2018-11-10T01:50:58.157Z,52.57
2018-11-10T01:53:33.362Z,45.30
2018-11-10T01:56:01.737Z,50.10
2018-11-10T01:58:30.005Z,51.80
2018-11-10T02:00:58.476Z,45.90
2018-11-10T02:03:26.564Z,48.93
2018-11-10T02:05:54.858Z,60.03
2018-11-10T02:08:22.986Z,62.80
2018-11-10T02:10:52.532Z,46.30
2018-11-10T02:13:20.797Z,58.87
2018-11-10T02:15:49.210Z,51.93
2018-11-10T02:18:17.809Z,53.43
2018-11-10T02:20:46.164Z,53.87
2018-11-10T02:23:14.740Z,52.43
2018-11-10T02:25:43.488Z,55.77
2018-11-10T02:28:12.305Z,60.23
2018-11-10T02:30:40.563Z,52.27
2018-11-10T02:33:08.828Z,48.83
2018-11-10T02:35:37.179Z,53.40
2018-11-10T02:38:05.561Z,60.80
2018-11-10T02:40:34.064Z,53.83
2018-11-10T02:43:02.159Z,46.53
2018-11-10T02:45:30.623Z,46.70
2018-11-10T02:47:58.761Z,54.80
2018-11-10T02:50:26.859Z,41.83
2018-11-10T02:52:55.031Z,51.43
2018-11-10T02:55:23.778Z,44.70
2018-11-10T02:57:51.785Z,39.73
2018-11-10T03:00:20.086Z,46.20
2018-11-10T03:02:48.500Z,35.93
2018-11-10T03:05:16.821Z,48.57
2018-11-10T03:07:45.212Z,42.00
2018-11-10T03:10:13.442Z,46.03
2018-11-10T03:12:42.010Z,52.07
2018-11-10T03:15:11.664Z,53.20
2018-11-10T03:17:40.495Z,51.00
2018-11-10T03:20:09.655Z,62.67
2018-11-10T03:22:38.390Z,65.00
2018-11-10T03:25:06.823Z,54.00
2018-11-10T03:27:35.227Z,49.83
2018-11-10T03:30:03.800Z,47.57
2018-11-10T03:32:31.948Z,51.27
2018-11-10T03:35:00.006Z,50.40
2018-11-10T03:37:28.290Z,58.20
2018-11-10T03:39:56.550Z,52.27
2018-11-10T03:42:24.765Z,52.93
2018-11-10T03:44:53.005Z,48.60
2018-11-10T03:47:21.069Z,54.07
2018-11-10T03:49:49.477Z,55.93
2018-11-10T03:52:17.627Z,53.73
2018-11-10T03:54:45.828Z,55.60
2018-11-10T03:57:14.165Z,49.17
2018-11-10T03:59:42.661Z,55.53
2018-11-10T04:02:10.846Z,52.57
2018-11-10T04:04:39.152Z,52.30
2018-11-10T04:07:07.350Z,56.87
2018-11-10T04:09:35.653Z,53.97
2018-11-10T04:12:04.096Z,59.40
2018-11-10T04:14:33.119Z,60.23
2018-11-10T04:17:01.229Z,55.40
2018-11-10T04:19:29.248Z,56.13
2018-11-10T04:21:57.648Z,45.93
2018-11-10T04:24:25.779Z,46.67
2018-11-10T04:26:54.138Z,41.90
2018-11-10T04:29:22.399Z,51.67
2018-11-10T04:31:50.470Z,51.30
2018-11-10T04:34:18.541Z,47.30
2018-11-10T04:36:46.857Z,50.30
2018-11-10T04:39:14.945Z,44.97
2018-11-10T04:41:43.065Z,42.00
2018-11-10T04:44:11.185Z,45.83
2018-11-10T04:46:39.856Z,41.17
2018-11-10T04:49:08.030Z,43.50
2018-11-10T04:51:36.390Z,42.77
2018-11-10T04:54:04.778Z,54.77
2018-11-10T04:56:33.029Z,48.80
2018-11-10T04:59:01.061Z,48.87
2018-11-10T05:01:29.367Z,47.83
2018-11-10T05:03:57.397Z,51.13
2018-11-10T05:06:25.456Z,44.57
2018-11-10T05:08:53.713Z,53.87
2018-11-10T05:11:21.822Z,37.50
2018-11-10T05:13:50.157Z,48.63
2018-11-10T05:16:18.362Z,49.03
2018-11-10T05:18:46.446Z,42.93
2018-11-10T05:21:14.616Z,40.40
2018-11-10T05:23:42.669Z,42.80
2018-11-10T05:26:10.861Z,52.93
2018-11-10T05:28:39.568Z,42.43
2018-11-10T05:31:08.345Z,47.23
2018-11-10T05:33:36.894Z,46.37
2018-11-10T05:36:05.122Z,42.60
2018-11-10T05:38:33.254Z,41.17
2018-11-10T05:41:02.024Z,47.00
2018-11-10T05:43:31.500Z,38.40
2018-11-10T05:45:59.778Z,40.20
2018-11-10T05:48:31.060Z,35.83
2018-11-10T05:50:59.258Z,54.43
2018-11-10T05:53:27.496Z,39.27
2018-11-10T05:55:55.628Z,37.20
2018-11-10T05:58:23.848Z,38.70
2018-11-10T06:00:52.068Z,52.07
2018-11-10T06:03:20.748Z,36.27
2018-11-10T06:05:48.713Z,39.63
2018-11-10T06:08:17.021Z,30.80
2018-11-10T06:10:45.388Z,37.20
2018-11-10T06:13:13.634Z,32.13
2018-11-10T06:15:41.937Z,37.13
2018-11-10T06:18:10.691Z,39.90
2018-11-10T06:20:39.712Z,36.73
2018-11-10T06:23:16.019Z,41.47
2018-11-10T06:25:44.370Z,44.27
2018-11-10T06:28:12.698Z,35.57
2018-11-10T06:30:41.409Z,32.77
2018-11-10T06:33:09.762Z,40.23
2018-11-10T06:35:38.245Z,31.17
2018-11-10T06:38:06.512Z,36.60
2018-11-10T06:40:34.939Z,36.27
2018-11-10T06:43:03.202Z,34.93
2018-11-10T06:45:31.995Z,39.60
2018-11-10T06:48:00.497Z,37.13
2018-11-10T06:50:28.645Z,44.97
2018-11-10T06:52:56.983Z,50.50
2018-11-10T06:55:24.978Z,39.27
2018-11-10T06:57:53.207Z,43.40
2018-11-10T07:00:21.448Z,40.43
2018-11-10T07:02:49.713Z,44.33
2018-11-10T07:05:18.105Z,43.73
2018-11-10T07:07:49.124Z,42.07
2018-11-10T07:10:17.294Z,35.93
2018-11-10T07:12:45.790Z,30.90
2018-11-10T07:15:16.839Z,32.63
2018-11-10T07:17:45.458Z,36.07
2018-11-10T07:20:13.630Z,39.30
2018-11-10T07:22:42.376Z,50.73
2018-11-10T07:25:10.766Z,40.00
2018-11-10T07:27:39.240Z,37.37
2018-11-10T07:30:09.604Z,43.50
2018-11-10T07:32:38.902Z,39.27
2018-11-10T07:35:07.936Z,35.80
2018-11-10T07:37:37.514Z,38.00
2018-11-10T07:40:07.758Z,37.50
2018-11-10T07:45:16.003Z,35.90
2018-11-10T07:47:45.294Z,34.10
2018-11-10T07:50:13.569Z,37.70
2018-11-10T07:52:42.715Z,34.60
2018-11-10T07:55:12.753Z,36.10
2018-11-10T07:57:41.125Z,42.67
2018-11-10T08:00:12.187Z,39.40
2018-11-10T08:02:40.938Z,35.43
2018-11-10T08:05:10.394Z,41.40
2018-11-10T08:07:39.437Z,36.60
2018-11-10T08:10:08.014Z,40.13
2018-11-10T08:12:36.682Z,33.90
2018-11-10T08:15:06.318Z,36.63
2018-11-10T08:17:36.146Z,30.47
2018-11-10T08:20:09.420Z,35.10
2018-11-10T08:22:38.353Z,36.67
2018-11-10T08:25:07.559Z,36.23
2018-11-10T08:27:35.862Z,25.80
2018-11-10T08:30:04.237Z,32.03
2018-11-10T08:32:34.604Z,42.00
2018-11-10T08:40:30.438Z,30.37
2018-11-10T08:45:35.132Z,25.50
2018-11-10T08:48:05.507Z,23.77
2018-11-10T08:50:34.097Z,26.00
2018-11-10T08:53:02.673Z,27.77
2018-11-10T08:55:32.329Z,24.43
2018-11-10T08:58:00.723Z,26.03
2018-11-10T09:00:29.486Z,22.10
2018-11-10T09:02:59.578Z,27.27
2018-11-10T09:05:30.159Z,21.70
2018-11-10T09:08:03.695Z,25.50
2018-11-10T09:10:41.340Z,21.37
2018-11-10T09:13:10.939Z,28.60
2018-11-10T09:15:40.638Z,23.73
2018-11-10T09:18:09.872Z,29.47
2018-11-10T09:23:16.824Z,34.77
2018-11-10T09:25:45.270Z,28.13
2018-11-10T09:28:26.081Z,26.20
2018-11-10T09:31:00.043Z,25.47
2018-11-10T09:33:29.546Z,27.63
2018-11-10T09:35:59.475Z,24.30
2018-11-10T09:41:17.133Z,22.07
2018-11-10T09:43:45.790Z,23.90
2018-11-10T09:46:24.840Z,18.83
2018-11-10T09:48:53.930Z,26.47
2018-11-10T09:51:27.676Z,21.87
2018-11-10T10:04:33.681Z,17.20
2018-11-10T10:28:18.678Z,20.37
2018-11-10T10:33:30.727Z,19.90
2018-11-10T10:44:13.921Z,15.40
2018-11-10T11:07:58.199Z,19.77
2018-11-10T11:10:32.815Z,18.80
2018-11-10T11:13:07.184Z,19.43
2018-11-10T11:18:17.197Z,22.70
2018-11-10T11:20:46.773Z,20.50
2018-11-10T11:29:12.816Z,20.90
2018-11-10T11:31:47.532Z,17.33
2018-11-10T11:42:38.973Z,21.23
2018-11-10T11:47:58.849Z,25.67
2018-11-10T11:50:28.023Z,22.93
2018-11-10T11:52:56.930Z,24.30
2018-11-10T11:55:29.929Z,25.57
2018-11-10T12:00:42.780Z,21.60
2018-11-10T12:03:19.248Z,21.93
2018-11-10T12:05:49.108Z,19.97
2018-11-10T12:08:18.307Z,22.50
2018-11-10T12:10:47.000Z,19.70
2018-11-10T12:15:56.579Z,21.10
2018-11-10T12:23:48.527Z,27.50
2018-11-10T12:26:18.283Z,22.80
2018-11-10T12:28:47.561Z,27.13
2018-11-10T12:31:20.890Z,27.80
2018-11-10T12:33:55.154Z,27.40
2018-11-10T12:36:25.423Z,24.00
2018-11-10T12:39:02.106Z,22.57
2018-11-10T12:41:32.162Z,22.87
2018-11-10T12:46:54.206Z,23.93
2018-11-10T12:52:11.604Z,23.00
2018-11-10T12:54:45.135Z,22.57
2018-11-10T12:57:16.200Z,18.07
2018-11-10T12:59:54.314Z,21.40
2018-11-10T13:02:30.893Z,30.60
2018-11-10T13:07:46.984Z,23.37
2018-11-10T13:13:03.895Z,21.57
2018-11-10T13:18:36.013Z,22.47
2018-11-10T13:21:11.435Z,22.03
2018-11-10T13:23:48.633Z,32.53
2018-11-10T13:32:00.560Z,26.70
2018-11-10T13:34:40.007Z,50.00
2018-11-10T13:40:06.925Z,23.67
2018-11-10T13:42:50.717Z,24.80
2018-11-10T13:48:06.097Z,24.30
2018-11-10T13:50:40.773Z,25.90
2018-11-10T13:53:24.518Z,26.00
2018-11-10T14:01:49.692Z,40.57
2018-11-10T14:24:33.752Z,34.57
2018-11-10T14:27:08.466Z,33.17
2018-11-10T14:38:13.170Z,40.83
2018-11-10T14:40:52.141Z,38.13
2018-11-10T14:43:30.922Z,37.20
2018-11-10T14:46:05.162Z,42.10
2018-11-10T14:48:45.370Z,51.57
2018-11-10T14:56:51.955Z,49.40
2018-11-10T14:59:32.368Z,49.33
2018-11-10T15:04:46.458Z,45.00
2018-11-10T15:10:25.148Z,62.00
2018-11-10T15:13:01.739Z,53.17
2018-11-10T15:15:43.082Z,49.70
2018-11-10T15:18:20.313Z,49.07
2018-11-10T15:23:57.404Z,59.13
2018-11-10T15:40:59.395Z,59.63
2018-11-10T15:43:33.881Z,67.23
2018-11-10T15:46:09.629Z,71.30
2018-11-10T15:48:50.173Z,61.47
2018-11-10T15:51:29.113Z,66.17
2018-11-10T16:00:10.010Z,74.73
2018-11-10T16:02:53.484Z,65.60
2018-11-10T16:08:37.287Z,65.00
2018-11-10T16:19:42.866Z,68.57
2018-11-10T16:51:06.089Z,55.90
2018-11-10T17:05:40.757Z,55.27
2018-11-10T17:13:43.812Z,51.50
2018-11-10T17:16:20.738Z,52.70
2018-11-10T17:36:38.701Z,54.33
2018-11-10T17:44:53.100Z,60.33
2018-11-10T17:53:07.998Z,54.53
2018-11-10T17:58:36.698Z,41.27
2018-11-10T18:06:57.583Z,52.83
2018-11-10T18:09:45.409Z,55.60
2018-11-10T18:12:21.631Z,57.50
2018-11-10T18:15:07.996Z,58.80
2018-11-10T18:23:15.425Z,57.30
2018-11-10T18:29:00.998Z,64.17
2018-11-10T18:31:44.912Z,55.03
2018-11-10T18:34:20.401Z,56.60
2018-11-10T18:39:52.427Z,55.03
2018-11-10T18:45:20.001Z,65.90
2018-11-10T18:59:19.687Z,66.03
2018-11-10T19:01:54.573Z,82.80
2018-11-10T19:07:18.230Z,67.53
2018-11-10T19:09:54.539Z,92.17
2018-11-10T19:12:36.914Z,78.20
2018-11-10T19:15:18.837Z,73.57
2018-11-10T19:18:04.563Z,71.13
2018-11-10T19:20:45.141Z,79.83
2018-11-10T19:37:54.738Z,95.70
2018-11-10T19:40:34.705Z,115.93
2018-11-10T19:43:11.551Z,113.40
2018-11-10T19:48:43.324Z,97.33
2018-11-10T19:53:58.506Z,87.80
2018-11-10T19:56:37.642Z,92.93
2018-11-10T19:59:15.154Z,132.80
2018-11-10T20:07:22.181Z,112.37
2018-11-10T20:12:45.737Z,177.90
2018-11-10T20:20:51.342Z,103.70
2018-11-10T20:23:25.677Z,125.87
2018-11-10T20:28:56.044Z,131.50
2018-11-10T20:31:39.829Z,133.10
2018-11-10T20:34:15.476Z,191.70
2018-11-10T20:37:03.492Z,124.90
2018-11-10T20:39:38.236Z,131.10
2018-11-10T20:45:02.416Z,124.53
2018-11-10T20:47:42.043Z,133.27
2018-11-10T20:50:19.611Z,111.40
2018-11-10T20:52:54.898Z,127.00
2018-11-10T20:55:32.631Z,116.33
2018-11-10T20:58:07.659Z,113.23
2018-11-10T21:03:43.423Z,145.10
2018-11-10T21:06:18.454Z,172.57
2018-11-10T21:08:52.882Z,245.30
2018-11-10T21:11:27.546Z,156.63
2018-11-10T21:14:10.008Z,133.87
2018-11-10T21:19:37.448Z,108.13
2018-11-10T21:25:00.011Z,126.33
2018-11-10T21:30:22.809Z,123.80
2018-11-10T21:32:57.639Z,156.00
2018-11-10T21:35:31.903Z,115.40
2018-11-10T21:38:06.340Z,134.63
2018-11-10T21:40:40.569Z,104.53
2018-11-10T21:43:14.980Z,109.07
2018-11-10T21:45:58.095Z,109.60
2018-11-10T21:48:39.421Z,116.93
2018-11-10T21:54:05.459Z,85.20
2018-11-10T21:59:26.516Z,81.00
2018-11-10T22:07:31.247Z,92.60
2018-11-10T22:10:06.169Z,98.07
2018-11-10T22:15:27.788Z,89.30
2018-11-10T22:18:07.970Z,73.13
2018-11-10T22:23:31.001Z,63.63
2018-11-10T22:26:05.502Z,67.37
2018-11-10T22:28:45.198Z,76.20
2018-11-10T22:31:22.952Z,62.10
2018-11-10T22:33:59.462Z,74.60
2018-11-10T22:36:35.033Z,66.30
2018-11-10T22:41:53.630Z,70.20
2018-11-10T22:44:31.630Z,65.70
2018-11-10T22:47:06.428Z,64.73
2018-11-10T22:52:29.022Z,59.73
2018-11-10T22:55:03.550Z,70.50
2018-11-10T22:57:42.295Z,55.23
2018-11-10T23:00:23.025Z,50.10
2018-11-10T23:02:58.836Z,57.07
2018-11-10T23:05:41.731Z,54.90
2018-11-10T23:08:16.195Z,61.40
2018-11-10T23:10:52.247Z,46.87
2018-11-10T23:13:26.660Z,59.43
2018-11-10T23:16:00.882Z,56.70
2018-11-10T23:18:35.260Z,50.87
2018-11-10T23:21:11.039Z,62.83
2018-11-10T23:23:45.203Z,55.50
2018-11-10T23:26:20.923Z,49.57
2018-11-10T23:28:55.422Z,56.17
2018-11-10T23:31:33.516Z,50.80
2018-11-10T23:34:07.641Z,65.07
2018-11-10T23:36:41.802Z,53.57
2018-11-10T23:39:21.651Z,46.50
2018-11-10T23:41:56.030Z,46.10
2018-11-10T23:44:30.018Z,42.93
2018-11-10T23:49:48.293Z,45.80
2018-11-10T23:55:07.566Z,44.83
2018-11-10T23:57:42.148Z,44.20
